sensor_id;sensor_type;location;lat;lon;timestamp;P1;durP1;ratioP1;P2;durP2;ratioP2
54307;SDS011;40208;39.778;2.710;2022-07-29T00:02:24;6.78;;;2.58;;
54307;SDS011;40208;39.778;2.710;2022-07-29T00:05:09;9.10;;;2.90;;
54307;SDS011;40208;39.778;2.710;2022-07-29T00:07:57;5.63;;;2.42;;
54307;SDS011;40208;39.778;2.710;2022-07-29T00:10:42;5.80;;;2.42;;
54307;SDS011;40208;39.778;2.710;2022-07-29T00:13:27;6.28;;;2.83;;
54307;SDS011;40208;39.778;2.710;2022-07-29T00:16:12;8.35;;;3.22;;
54307;SDS011;40208;39.778;2.710;2022-07-29T00:18:57;5.32;;;2.55;;
54307;SDS011;40208;39.778;2.710;2022-07-29T00:21:42;9.73;;;2.65;;
54307;SDS011;40208;39.778;2.710;2022-07-29T00:24:27;11.90;;;3.17;;
54307;SDS011;40208;39.778;2.710;2022-07-29T00:27:12;9.02;;;2.72;;
54307;SDS011;40208;39.778;2.710;2022-07-29T00:29:56;8.38;;;2.92;;
54307;SDS011;40208;39.778;2.710;2022-07-29T00:32:41;5.80;;;2.20;;
54307;SDS011;40208;39.778;2.710;2022-07-29T00:35:26;10.73;;;3.13;;
54307;SDS011;40208;39.778;2.710;2022-07-29T00:38:28;18.52;;;3.42;;
54307;SDS011;40208;39.778;2.710;2022-07-29T00:41:13;7.45;;;2.85;;
54307;SDS011;40208;39.778;2.710;2022-07-29T00:43:58;5.80;;;3.00;;
54307;SDS011;40208;39.778;2.710;2022-07-29T00:46:43;6.53;;;2.95;;
54307;SDS011;40208;39.778;2.710;2022-07-29T00:49:28;10.23;;;3.38;;
54307;SDS011;40208;39.778;2.710;2022-07-29T00:52:12;5.18;;;2.88;;
54307;SDS011;40208;39.778;2.710;2022-07-29T00:54:57;7.95;;;2.85;;
54307;SDS011;40208;39.778;2.710;2022-07-29T00:57:42;7.72;;;3.38;;
54307;SDS011;40208;39.778;2.710;2022-07-29T01:00:29;9.68;;;3.55;;
54307;SDS011;40208;39.778;2.710;2022-07-29T01:03:14;7.65;;;2.97;;
54307;SDS011;40208;39.778;2.710;2022-07-29T01:05:59;5.97;;;2.45;;
54307;SDS011;40208;39.778;2.710;2022-07-29T01:08:45;7.18;;;3.33;;
54307;SDS011;40208;39.778;2.710;2022-07-29T01:11:32;10.73;;;3.00;;
54307;SDS011;40208;39.778;2.710;2022-07-29T01:14:18;5.35;;;2.60;;
54307;SDS011;40208;39.778;2.710;2022-07-29T01:20:07;8.57;;;3.30;;
54307;SDS011;40208;39.778;2.710;2022-07-29T01:25:59;6.43;;;3.03;;
54307;SDS011;40208;39.778;2.710;2022-07-29T01:28:49;8.18;;;3.28;;
54307;SDS011;40208;39.778;2.710;2022-07-29T01:31:47;7.28;;;2.70;;
54307;SDS011;40208;39.778;2.710;2022-07-29T01:40:45;15.68;;;3.65;;
54307;SDS011;40208;39.778;2.710;2022-07-29T01:46:52;8.27;;;3.60;;
54307;SDS011;40208;39.778;2.710;2022-07-29T01:49:41;10.65;;;3.22;;
54307;SDS011;40208;39.778;2.710;2022-07-29T01:52:31;9.77;;;3.33;;
54307;SDS011;40208;39.778;2.710;2022-07-29T01:55:22;8.65;;;3.20;;
54307;SDS011;40208;39.778;2.710;2022-07-29T01:58:12;6.22;;;2.92;;
54307;SDS011;40208;39.778;2.710;2022-07-29T02:00:59;5.30;;;2.97;;
54307;SDS011;40208;39.778;2.710;2022-07-29T02:03:46;6.30;;;3.33;;
54307;SDS011;40208;39.778;2.710;2022-07-29T02:06:32;7.90;;;2.92;;
54307;SDS011;40208;39.778;2.710;2022-07-29T02:09:19;6.32;;;2.95;;
54307;SDS011;40208;39.778;2.710;2022-07-29T02:12:06;8.65;;;3.17;;
54307;SDS011;40208;39.778;2.710;2022-07-29T02:14:52;8.77;;;3.30;;
54307;SDS011;40208;39.778;2.710;2022-07-29T02:17:40;9.10;;;3.33;;
54307;SDS011;40208;39.778;2.710;2022-07-29T02:20:28;7.77;;;3.57;;
54307;SDS011;40208;39.778;2.710;2022-07-29T02:23:14;5.38;;;3.47;;
54307;SDS011;40208;39.778;2.710;2022-07-29T02:29:38;10.20;;;3.45;;
54307;SDS011;40208;39.778;2.710;2022-07-29T02:36:50;8.38;;;3.25;;
54307;SDS011;40208;39.778;2.710;2022-07-29T02:39:52;9.65;;;4.03;;
54307;SDS011;40208;39.778;2.710;2022-07-29T02:42:39;10.32;;;3.70;;
54307;SDS011;40208;39.778;2.710;2022-07-29T02:49:07;6.50;;;3.65;;
54307;SDS011;40208;39.778;2.710;2022-07-29T02:52:06;6.28;;;3.47;;
54307;SDS011;40208;39.778;2.710;2022-07-29T02:55:00;14.15;;;3.75;;
54307;SDS011;40208;39.778;2.710;2022-07-29T03:01:45;7.45;;;3.28;;
54307;SDS011;40208;39.778;2.710;2022-07-29T03:04:31;9.18;;;4.22;;
54307;SDS011;40208;39.778;2.710;2022-07-29T03:07:18;7.72;;;3.38;;
54307;SDS011;40208;39.778;2.710;2022-07-29T03:10:06;8.38;;;4.18;;
54307;SDS011;40208;39.778;2.710;2022-07-29T03:12:54;10.30;;;3.97;;
54307;SDS011;40208;39.778;2.710;2022-07-29T03:15:40;5.28;;;3.55;;
54307;SDS011;40208;39.778;2.710;2022-07-29T03:18:28;8.48;;;3.05;;
54307;SDS011;40208;39.778;2.710;2022-07-29T03:21:15;9.25;;;3.45;;
54307;SDS011;40208;39.778;2.710;2022-07-29T03:23:59;6.30;;;3.15;;
54307;SDS011;40208;39.778;2.710;2022-07-29T03:26:44;10.68;;;3.67;;
54307;SDS011;40208;39.778;2.710;2022-07-29T03:29:29;7.63;;;3.35;;
54307;SDS011;40208;39.778;2.710;2022-07-29T03:32:14;7.45;;;3.65;;
54307;SDS011;40208;39.778;2.710;2022-07-29T03:34:59;9.50;;;3.20;;
54307;SDS011;40208;39.778;2.710;2022-07-29T03:37:44;6.95;;;3.20;;
54307;SDS011;40208;39.778;2.710;2022-07-29T03:40:34;10.32;;;3.67;;
54307;SDS011;40208;39.778;2.710;2022-07-29T03:43:22;6.55;;;3.20;;
54307;SDS011;40208;39.778;2.710;2022-07-29T03:46:14;9.77;;;3.67;;
54307;SDS011;40208;39.778;2.710;2022-07-29T03:49:03;7.65;;;3.40;;
54307;SDS011;40208;39.778;2.710;2022-07-29T03:51:49;9.48;;;3.28;;
54307;SDS011;40208;39.778;2.710;2022-07-29T03:54:34;9.32;;;4.65;;
54307;SDS011;40208;39.778;2.710;2022-07-29T03:57:20;10.65;;;3.95;;
54307;SDS011;40208;39.778;2.710;2022-07-29T04:00:09;9.45;;;4.03;;
54307;SDS011;40208;39.778;2.710;2022-07-29T04:02:54;6.30;;;3.17;;
54307;SDS011;40208;39.778;2.710;2022-07-29T04:05:39;10.60;;;3.65;;
54307;SDS011;40208;39.778;2.710;2022-07-29T04:08:24;6.03;;;3.00;;
54307;SDS011;40208;39.778;2.710;2022-07-29T04:11:09;10.07;;;4.03;;
54307;SDS011;40208;39.778;2.710;2022-07-29T04:13:54;8.05;;;3.17;;
54307;SDS011;40208;39.778;2.710;2022-07-29T04:16:39;12.23;;;3.88;;
54307;SDS011;40208;39.778;2.710;2022-07-29T04:19:24;11.80;;;3.63;;
54307;SDS011;40208;39.778;2.710;2022-07-29T04:22:09;9.20;;;3.45;;
54307;SDS011;40208;39.778;2.710;2022-07-29T04:24:54;9.45;;;4.28;;
54307;SDS011;40208;39.778;2.710;2022-07-29T04:27:39;13.60;;;3.53;;
54307;SDS011;40208;39.778;2.710;2022-07-29T04:30:44;9.05;;;3.63;;
54307;SDS011;40208;39.778;2.710;2022-07-29T04:33:29;7.10;;;3.70;;
54307;SDS011;40208;39.778;2.710;2022-07-29T04:36:13;6.35;;;3.55;;
54307;SDS011;40208;39.778;2.710;2022-07-29T04:38:58;9.77;;;4.30;;
54307;SDS011;40208;39.778;2.710;2022-07-29T04:41:45;5.03;;;3.38;;
54307;SDS011;40208;39.778;2.710;2022-07-29T04:44:30;11.70;;;4.03;;
54307;SDS011;40208;39.778;2.710;2022-07-29T04:47:15;11.82;;;4.05;;
54307;SDS011;40208;39.778;2.710;2022-07-29T04:50:00;18.20;;;5.35;;
54307;SDS011;40208;39.778;2.710;2022-07-29T04:52:44;18.98;;;3.95;;
54307;SDS011;40208;39.778;2.710;2022-07-29T04:55:30;13.13;;;4.32;;
54307;SDS011;40208;39.778;2.710;2022-07-29T04:58:14;27.00;;;4.53;;
54307;SDS011;40208;39.778;2.710;2022-07-29T05:00:59;16.02;;;4.15;;
54307;SDS011;40208;39.778;2.710;2022-07-29T05:03:44;19.85;;;4.72;;
54307;SDS011;40208;39.778;2.710;2022-07-29T05:06:29;7.63;;;3.60;;
54307;SDS011;40208;39.778;2.710;2022-07-29T05:09:14;9.13;;;3.72;;
54307;SDS011;40208;39.778;2.710;2022-07-29T05:11:59;13.70;;;3.65;;
54307;SDS011;40208;39.778;2.710;2022-07-29T05:14:44;14.98;;;4.07;;
54307;SDS011;40208;39.778;2.710;2022-07-29T05:17:29;9.13;;;4.10;;
54307;SDS011;40208;39.778;2.710;2022-07-29T05:20:13;10.48;;;4.00;;
54307;SDS011;40208;39.778;2.710;2022-07-29T05:22:59;12.02;;;4.47;;
54307;SDS011;40208;39.778;2.710;2022-07-29T05:25:44;12.88;;;4.65;;
54307;SDS011;40208;39.778;2.710;2022-07-29T05:28:32;12.98;;;4.88;;
54307;SDS011;40208;39.778;2.710;2022-07-29T05:31:19;27.83;;;5.40;;
54307;SDS011;40208;39.778;2.710;2022-07-29T05:34:04;37.60;;;7.15;;
54307;SDS011;40208;39.778;2.710;2022-07-29T05:36:48;21.55;;;5.70;;
54307;SDS011;40208;39.778;2.710;2022-07-29T05:39:34;12.65;;;4.32;;
54307;SDS011;40208;39.778;2.710;2022-07-29T05:42:19;16.23;;;4.60;;
54307;SDS011;40208;39.778;2.710;2022-07-29T05:45:04;15.00;;;4.72;;
54307;SDS011;40208;39.778;2.710;2022-07-29T05:47:49;15.80;;;4.70;;
54307;SDS011;40208;39.778;2.710;2022-07-29T05:50:34;9.85;;;4.20;;
54307;SDS011;40208;39.778;2.710;2022-07-29T05:53:19;14.88;;;4.03;;
54307;SDS011;40208;39.778;2.710;2022-07-29T05:56:06;9.55;;;5.30;;
54307;SDS011;40208;39.778;2.710;2022-07-29T05:58:51;13.65;;;5.60;;
54307;SDS011;40208;39.778;2.710;2022-07-29T06:01:36;28.27;;;5.45;;
54307;SDS011;40208;39.778;2.710;2022-07-29T06:04:23;11.07;;;5.25;;
54307;SDS011;40208;39.778;2.710;2022-07-29T06:07:08;11.90;;;5.40;;
54307;SDS011;40208;39.778;2.710;2022-07-29T06:09:53;15.23;;;5.60;;
54307;SDS011;40208;39.778;2.710;2022-07-29T06:12:38;13.25;;;6.05;;
54307;SDS011;40208;39.778;2.710;2022-07-29T06:15:22;18.45;;;5.50;;
54307;SDS011;40208;39.778;2.710;2022-07-29T06:18:07;14.90;;;5.55;;
54307;SDS011;40208;39.778;2.710;2022-07-29T06:20:53;17.73;;;5.38;;
54307;SDS011;40208;39.778;2.710;2022-07-29T06:23:38;16.42;;;5.53;;
54307;SDS011;40208;39.778;2.710;2022-07-29T06:26:23;16.92;;;5.60;;
54307;SDS011;40208;39.778;2.710;2022-07-29T06:29:09;12.98;;;4.90;;
54307;SDS011;40208;39.778;2.710;2022-07-29T06:31:57;14.77;;;5.55;;
54307;SDS011;40208;39.778;2.710;2022-07-29T06:34:42;17.10;;;5.50;;
54307;SDS011;40208;39.778;2.710;2022-07-29T06:37:27;11.20;;;5.32;;
54307;SDS011;40208;39.778;2.710;2022-07-29T06:40:11;12.55;;;5.00;;
54307;SDS011;40208;39.778;2.710;2022-07-29T06:43:15;19.98;;;5.13;;
54307;SDS011;40208;39.778;2.710;2022-07-29T06:46:10;14.52;;;4.90;;
54307;SDS011;40208;39.778;2.710;2022-07-29T06:48:56;10.48;;;4.20;;
54307;SDS011;40208;39.778;2.710;2022-07-29T06:51:41;15.10;;;5.10;;
54307;SDS011;40208;39.778;2.710;2022-07-29T06:54:26;12.60;;;3.72;;
54307;SDS011;40208;39.778;2.710;2022-07-29T06:57:11;9.52;;;3.67;;
54307;SDS011;40208;39.778;2.710;2022-07-29T06:59:56;7.97;;;3.92;;
54307;SDS011;40208;39.778;2.710;2022-07-29T07:02:41;15.05;;;4.45;;
54307;SDS011;40208;39.778;2.710;2022-07-29T07:05:26;11.63;;;4.63;;
54307;SDS011;40208;39.778;2.710;2022-07-29T07:08:11;10.40;;;3.67;;
54307;SDS011;40208;39.778;2.710;2022-07-29T07:10:56;8.93;;;3.53;;
54307;SDS011;40208;39.778;2.710;2022-07-29T07:13:41;11.82;;;3.70;;
54307;SDS011;40208;39.778;2.710;2022-07-29T07:16:26;16.95;;;4.35;;
54307;SDS011;40208;39.778;2.710;2022-07-29T07:19:10;9.20;;;3.63;;
54307;SDS011;40208;39.778;2.710;2022-07-29T07:21:55;15.98;;;4.63;;
54307;SDS011;40208;39.778;2.710;2022-07-29T07:24:40;12.73;;;3.78;;
54307;SDS011;40208;39.778;2.710;2022-07-29T07:27:25;11.50;;;3.45;;
54307;SDS011;40208;39.778;2.710;2022-07-29T07:30:12;12.48;;;3.47;;
54307;SDS011;40208;39.778;2.710;2022-07-29T07:32:57;7.63;;;3.58;;
54307;SDS011;40208;39.778;2.710;2022-07-29T07:35:42;10.20;;;3.20;;
54307;SDS011;40208;39.778;2.710;2022-07-29T07:38:26;12.63;;;3.80;;
54307;SDS011;40208;39.778;2.710;2022-07-29T07:41:11;9.75;;;3.20;;
54307;SDS011;40208;39.778;2.710;2022-07-29T07:43:56;20.65;;;4.60;;
54307;SDS011;40208;39.778;2.710;2022-07-29T07:46:41;11.95;;;3.78;;
54307;SDS011;40208;39.778;2.710;2022-07-29T07:49:26;9.77;;;3.55;;
54307;SDS011;40208;39.778;2.710;2022-07-29T07:52:11;8.80;;;3.17;;
54307;SDS011;40208;39.778;2.710;2022-07-29T07:54:55;10.27;;;3.17;;
54307;SDS011;40208;39.778;2.710;2022-07-29T07:57:40;8.93;;;2.88;;
54307;SDS011;40208;39.778;2.710;2022-07-29T08:00:25;9.80;;;3.60;;
54307;SDS011;40208;39.778;2.710;2022-07-29T08:03:10;7.28;;;2.85;;
54307;SDS011;40208;39.778;2.710;2022-07-29T08:05:57;7.75;;;3.25;;
54307;SDS011;40208;39.778;2.710;2022-07-29T08:08:42;9.00;;;3.00;;
54307;SDS011;40208;39.778;2.710;2022-07-29T08:11:27;7.75;;;2.95;;
54307;SDS011;40208;39.778;2.710;2022-07-29T08:14:12;11.93;;;3.13;;
54307;SDS011;40208;39.778;2.710;2022-07-29T08:16:57;8.77;;;2.72;;
54307;SDS011;40208;39.778;2.710;2022-07-29T08:19:42;7.55;;;3.10;;
54307;SDS011;40208;39.778;2.710;2022-07-29T08:22:27;12.88;;;3.63;;
54307;SDS011;40208;39.778;2.710;2022-07-29T08:25:12;6.50;;;2.53;;
54307;SDS011;40208;39.778;2.710;2022-07-29T08:27:57;10.88;;;3.33;;
54307;SDS011;40208;39.778;2.710;2022-07-29T08:30:42;10.82;;;3.00;;
54307;SDS011;40208;39.778;2.710;2022-07-29T08:33:27;11.73;;;3.40;;
54307;SDS011;40208;39.778;2.710;2022-07-29T08:36:12;10.00;;;3.15;;
54307;SDS011;40208;39.778;2.710;2022-07-29T08:38:57;12.43;;;3.38;;
54307;SDS011;40208;39.778;2.710;2022-07-29T08:41:42;9.98;;;3.20;;
54307;SDS011;40208;39.778;2.710;2022-07-29T08:44:27;10.23;;;3.30;;
54307;SDS011;40208;39.778;2.710;2022-07-29T08:47:13;7.78;;;3.38;;
54307;SDS011;40208;39.778;2.710;2022-07-29T08:49:58;8.15;;;3.25;;
54307;SDS011;40208;39.778;2.710;2022-07-29T08:52:44;11.98;;;3.88;;
54307;SDS011;40208;39.778;2.710;2022-07-29T08:55:30;8.10;;;2.72;;
54307;SDS011;40208;39.778;2.710;2022-07-29T08:58:15;11.43;;;3.45;;
54307;SDS011;40208;39.778;2.710;2022-07-29T09:01:01;8.45;;;3.33;;
54307;SDS011;40208;39.778;2.710;2022-07-29T09:03:47;8.98;;;3.00;;
54307;SDS011;40208;39.778;2.710;2022-07-29T09:06:34;10.52;;;3.10;;
54307;SDS011;40208;39.778;2.710;2022-07-29T09:09:21;5.70;;;2.63;;
54307;SDS011;40208;39.778;2.710;2022-07-29T09:12:06;10.48;;;3.08;;
54307;SDS011;40208;39.778;2.710;2022-07-29T09:14:52;7.55;;;3.33;;
54307;SDS011;40208;39.778;2.710;2022-07-29T09:17:44;9.38;;;2.70;;
54307;SDS011;40208;39.778;2.710;2022-07-29T09:20:30;8.10;;;2.80;;
54307;SDS011;40208;39.778;2.710;2022-07-29T09:23:34;10.43;;;2.88;;
54307;SDS011;40208;39.778;2.710;2022-07-29T09:26:18;12.02;;;3.35;;
54307;SDS011;40208;39.778;2.710;2022-07-29T09:32:01;11.35;;;3.22;;
54307;SDS011;40208;39.778;2.710;2022-07-29T09:38:11;7.07;;;3.63;;
54307;SDS011;40208;39.778;2.710;2022-07-29T09:40:59;7.80;;;2.83;;
54307;SDS011;40208;39.778;2.710;2022-07-29T09:43:53;13.30;;;3.35;;
54307;SDS011;40208;39.778;2.710;2022-07-29T09:46:38;8.82;;;3.20;;
54307;SDS011;40208;39.778;2.710;2022-07-29T09:49:24;7.32;;;2.72;;
54307;SDS011;40208;39.778;2.710;2022-07-29T09:52:09;11.20;;;3.17;;
54307;SDS011;40208;39.778;2.710;2022-07-29T09:55:07;11.93;;;3.47;;
54307;SDS011;40208;39.778;2.710;2022-07-29T09:58:16;8.85;;;2.92;;
54307;SDS011;40208;39.778;2.710;2022-07-29T10:01:02;9.75;;;3.05;;
54307;SDS011;40208;39.778;2.710;2022-07-29T10:03:51;11.10;;;3.25;;
54307;SDS011;40208;39.778;2.710;2022-07-29T10:06:47;16.35;;;3.40;;
54307;SDS011;40208;39.778;2.710;2022-07-29T10:09:40;17.02;;;3.13;;
54307;SDS011;40208;39.778;2.710;2022-07-29T10:12:52;9.65;;;3.03;;
54307;SDS011;40208;39.778;2.710;2022-07-29T10:15:43;13.45;;;3.03;;
54307;SDS011;40208;39.778;2.710;2022-07-29T10:18:30;9.13;;;3.00;;
54307;SDS011;40208;39.778;2.710;2022-07-29T10:21:15;18.20;;;3.10;;
54307;SDS011;40208;39.778;2.710;2022-07-29T10:24:00;10.52;;;2.67;;
54307;SDS011;40208;39.778;2.710;2022-07-29T10:26:45;11.85;;;3.38;;
54307;SDS011;40208;39.778;2.710;2022-07-29T10:29:32;12.75;;;3.40;;
54307;SDS011;40208;39.778;2.710;2022-07-29T10:32:24;12.02;;;3.05;;
54307;SDS011;40208;39.778;2.710;2022-07-29T10:35:21;13.13;;;3.90;;
54307;SDS011;40208;39.778;2.710;2022-07-29T10:41:12;11.77;;;2.85;;
54307;SDS011;40208;39.778;2.710;2022-07-29T10:44:24;10.73;;;3.22;;
54307;SDS011;40208;39.778;2.710;2022-07-29T10:47:24;7.03;;;2.72;;
54307;SDS011;40208;39.778;2.710;2022-07-29T10:50:10;8.20;;;2.90;;
54307;SDS011;40208;39.778;2.710;2022-07-29T10:52:55;6.57;;;3.05;;
54307;SDS011;40208;39.778;2.710;2022-07-29T10:55:43;10.20;;;3.15;;
54307;SDS011;40208;39.778;2.710;2022-07-29T10:58:30;12.82;;;3.42;;
54307;SDS011;40208;39.778;2.710;2022-07-29T11:01:34;11.82;;;3.38;;
54307;SDS011;40208;39.778;2.710;2022-07-29T11:07:30;7.90;;;3.22;;
54307;SDS011;40208;39.778;2.710;2022-07-29T11:12:59;11.90;;;3.45;;
54307;SDS011;40208;39.778;2.710;2022-07-29T11:15:56;9.85;;;3.30;;
54307;SDS011;40208;39.778;2.710;2022-07-29T11:21:57;6.82;;;3.42;;
54307;SDS011;40208;39.778;2.710;2022-07-29T11:24:42;10.32;;;3.50;;
54307;SDS011;40208;39.778;2.710;2022-07-29T11:27:30;8.60;;;3.20;;
54307;SDS011;40208;39.778;2.710;2022-07-29T11:30:44;11.70;;;3.80;;
54307;SDS011;40208;39.778;2.710;2022-07-29T11:33:35;12.05;;;4.30;;
54307;SDS011;40208;39.778;2.710;2022-07-29T11:36:19;12.05;;;3.90;;
54307;SDS011;40208;39.778;2.710;2022-07-29T11:47:58;11.23;;;3.55;;
54307;SDS011;40208;39.778;2.710;2022-07-29T11:50:44;6.75;;;3.28;;
54307;SDS011;40208;39.778;2.710;2022-07-29T11:53:29;5.72;;;2.85;;
54307;SDS011;40208;39.778;2.710;2022-07-29T11:56:15;10.13;;;3.50;;
54307;SDS011;40208;39.778;2.710;2022-07-29T11:59:06;7.45;;;2.92;;
54307;SDS011;40208;39.778;2.710;2022-07-29T12:01:57;5.65;;;3.17;;
54307;SDS011;40208;39.778;2.710;2022-07-29T12:07:34;10.70;;;3.92;;
54307;SDS011;40208;39.778;2.710;2022-07-29T12:10:19;9.07;;;3.08;;
54307;SDS011;40208;39.778;2.710;2022-07-29T12:13:04;8.80;;;2.92;;
54307;SDS011;40208;39.778;2.710;2022-07-29T12:15:52;8.88;;;3.15;;
54307;SDS011;40208;39.778;2.710;2022-07-29T12:18:42;7.30;;;3.47;;
54307;SDS011;40208;39.778;2.710;2022-07-29T12:21:45;9.40;;;3.25;;
54307;SDS011;40208;39.778;2.710;2022-07-29T12:24:43;9.90;;;3.40;;
54307;SDS011;40208;39.778;2.710;2022-07-29T12:27:28;8.40;;;2.75;;
54307;SDS011;40208;39.778;2.710;2022-07-29T12:30:14;14.77;;;3.53;;
54307;SDS011;40208;39.778;2.710;2022-07-29T12:33:00;7.57;;;3.00;;
54307;SDS011;40208;39.778;2.710;2022-07-29T12:35:46;12.38;;;4.22;;
54307;SDS011;40208;39.778;2.710;2022-07-29T12:38:34;9.70;;;2.97;;
54307;SDS011;40208;39.778;2.710;2022-07-29T12:41:20;7.93;;;3.42;;
54307;SDS011;40208;39.778;2.710;2022-07-29T12:44:04;12.45;;;3.55;;
54307;SDS011;40208;39.778;2.710;2022-07-29T12:47:02;6.93;;;3.30;;
54307;SDS011;40208;39.778;2.710;2022-07-29T12:49:48;9.13;;;3.13;;
54307;SDS011;40208;39.778;2.710;2022-07-29T12:52:34;14.70;;;3.97;;
54307;SDS011;40208;39.778;2.710;2022-07-29T12:55:38;11.43;;;3.67;;
54307;SDS011;40208;39.778;2.710;2022-07-29T12:58:37;6.78;;;3.10;;
54307;SDS011;40208;39.778;2.710;2022-07-29T13:01:23;8.15;;;2.88;;
54307;SDS011;40208;39.778;2.710;2022-07-29T13:04:08;16.73;;;3.67;;
54307;SDS011;40208;39.778;2.710;2022-07-29T13:09:45;12.15;;;3.42;;
54307;SDS011;40208;39.778;2.710;2022-07-29T13:12:30;9.43;;;3.42;;
54307;SDS011;40208;39.778;2.710;2022-07-29T13:15:15;8.02;;;2.70;;
54307;SDS011;40208;39.778;2.710;2022-07-29T13:18:00;9.57;;;2.95;;
54307;SDS011;40208;39.778;2.710;2022-07-29T13:20:46;9.25;;;3.05;;
54307;SDS011;40208;39.778;2.710;2022-07-29T13:23:30;10.07;;;3.33;;
54307;SDS011;40208;39.778;2.710;2022-07-29T13:26:15;11.68;;;3.67;;
54307;SDS011;40208;39.778;2.710;2022-07-29T13:29:03;15.77;;;3.25;;
54307;SDS011;40208;39.778;2.710;2022-07-29T13:31:48;11.18;;;3.17;;
54307;SDS011;40208;39.778;2.710;2022-07-29T13:34:33;14.95;;;3.47;;
54307;SDS011;40208;39.778;2.710;2022-07-29T13:37:18;9.27;;;3.08;;
54307;SDS011;40208;39.778;2.710;2022-07-29T13:40:04;8.07;;;3.03;;
54307;SDS011;40208;39.778;2.710;2022-07-29T13:42:50;6.93;;;2.70;;
54307;SDS011;40208;39.778;2.710;2022-07-29T13:45:35;12.98;;;3.58;;
54307;SDS011;40208;39.778;2.710;2022-07-29T13:48:20;12.55;;;3.17;;
54307;SDS011;40208;39.778;2.710;2022-07-29T13:51:05;9.40;;;3.00;;
54307;SDS011;40208;39.778;2.710;2022-07-29T13:53:50;9.40;;;2.83;;
54307;SDS011;40208;39.778;2.710;2022-07-29T13:56:35;11.93;;;4.00;;
54307;SDS011;40208;39.778;2.710;2022-07-29T13:59:20;9.30;;;3.80;;
54307;SDS011;40208;39.778;2.710;2022-07-29T14:02:05;11.43;;;3.38;;
54307;SDS011;40208;39.778;2.710;2022-07-29T14:04:49;10.63;;;3.70;;
54307;SDS011;40208;39.778;2.710;2022-07-29T14:07:34;13.35;;;4.70;;
54307;SDS011;40208;39.778;2.710;2022-07-29T14:10:19;8.93;;;3.28;;
54307;SDS011;40208;39.778;2.710;2022-07-29T14:13:04;11.32;;;3.53;;
54307;SDS011;40208;39.778;2.710;2022-07-29T14:15:49;10.20;;;3.53;;
54307;SDS011;40208;39.778;2.710;2022-07-29T14:18:34;16.63;;;4.15;;
54307;SDS011;40208;39.778;2.710;2022-07-29T14:21:19;7.53;;;2.78;;
54307;SDS011;40208;39.778;2.710;2022-07-29T14:24:04;6.32;;;2.78;;
54307;SDS011;40208;39.778;2.710;2022-07-29T14:26:51;10.48;;;3.13;;
54307;SDS011;40208;39.778;2.710;2022-07-29T14:29:36;7.68;;;3.15;;
54307;SDS011;40208;39.778;2.710;2022-07-29T14:32:21;11.30;;;3.22;;
54307;SDS011;40208;39.778;2.710;2022-07-29T14:35:06;9.23;;;3.05;;
54307;SDS011;40208;39.778;2.710;2022-07-29T14:37:52;6.55;;;2.78;;
54307;SDS011;40208;39.778;2.710;2022-07-29T14:40:37;7.68;;;2.95;;
54307;SDS011;40208;39.778;2.710;2022-07-29T14:43:22;11.38;;;3.08;;
54307;SDS011;40208;39.778;2.710;2022-07-29T14:46:07;7.90;;;3.00;;
54307;SDS011;40208;39.778;2.710;2022-07-29T14:48:52;5.22;;;3.05;;
54307;SDS011;40208;39.778;2.710;2022-07-29T14:51:36;11.77;;;3.20;;
54307;SDS011;40208;39.778;2.710;2022-07-29T14:54:21;10.38;;;2.92;;
54307;SDS011;40208;39.778;2.710;2022-07-29T14:57:06;9.27;;;2.88;;
54307;SDS011;40208;39.778;2.710;2022-07-29T14:59:51;7.60;;;2.67;;
54307;SDS011;40208;39.778;2.710;2022-07-29T15:02:35;10.23;;;3.30;;
54307;SDS011;40208;39.778;2.710;2022-07-29T15:05:20;9.82;;;2.95;;
54307;SDS011;40208;39.778;2.710;2022-07-29T15:08:05;8.10;;;3.42;;
54307;SDS011;40208;39.778;2.710;2022-07-29T15:10:52;12.63;;;3.00;;
54307;SDS011;40208;39.778;2.710;2022-07-29T15:13:37;10.35;;;3.22;;
54307;SDS011;40208;39.778;2.710;2022-07-29T15:16:22;10.15;;;3.17;;
54307;SDS011;40208;39.778;2.710;2022-07-29T15:19:06;11.85;;;4.68;;
54307;SDS011;40208;39.778;2.710;2022-07-29T15:21:51;9.48;;;3.85;;
54307;SDS011;40208;39.778;2.710;2022-07-29T15:24:36;11.55;;;3.75;;
54307;SDS011;40208;39.778;2.710;2022-07-29T15:27:21;8.73;;;3.95;;
54307;SDS011;40208;39.778;2.710;2022-07-29T15:30:06;10.10;;;3.33;;
54307;SDS011;40208;39.778;2.710;2022-07-29T15:32:51;7.68;;;2.75;;
54307;SDS011;40208;39.778;2.710;2022-07-29T15:35:37;5.40;;;3.00;;
54307;SDS011;40208;39.778;2.710;2022-07-29T15:38:22;7.72;;;3.40;;
54307;SDS011;40208;39.778;2.710;2022-07-29T15:41:07;9.70;;;3.33;;
54307;SDS011;40208;39.778;2.710;2022-07-29T15:43:51;11.00;;;3.53;;
54307;SDS011;40208;39.778;2.710;2022-07-29T15:46:36;8.50;;;3.78;;
54307;SDS011;40208;39.778;2.710;2022-07-29T15:49:39;7.82;;;2.83;;
54307;SDS011;40208;39.778;2.710;2022-07-29T15:52:25;8.30;;;3.00;;
54307;SDS011;40208;39.778;2.710;2022-07-29T15:55:10;6.78;;;3.28;;
54307;SDS011;40208;39.778;2.710;2022-07-29T15:57:55;12.35;;;3.40;;
54307;SDS011;40208;39.778;2.710;2022-07-29T16:00:40;10.95;;;3.47;;
54307;SDS011;40208;39.778;2.710;2022-07-29T16:03:24;11.77;;;3.00;;
54307;SDS011;40208;39.778;2.710;2022-07-29T16:06:09;7.05;;;3.63;;
54307;SDS011;40208;39.778;2.710;2022-07-29T16:08:54;11.48;;;3.20;;
54307;SDS011;40208;39.778;2.710;2022-07-29T16:11:39;11.43;;;3.38;;
54307;SDS011;40208;39.778;2.710;2022-07-29T16:14:24;8.70;;;3.53;;
54307;SDS011;40208;39.778;2.710;2022-07-29T16:17:09;7.25;;;3.33;;
54307;SDS011;40208;39.778;2.710;2022-07-29T16:19:54;16.55;;;4.72;;
54307;SDS011;40208;39.778;2.710;2022-07-29T16:22:39;15.52;;;5.78;;
54307;SDS011;40208;39.778;2.710;2022-07-29T16:25:24;10.18;;;4.55;;
54307;SDS011;40208;39.778;2.710;2022-07-29T16:28:08;14.85;;;3.53;;
54307;SDS011;40208;39.778;2.710;2022-07-29T16:30:54;12.60;;;3.72;;
54307;SDS011;40208;39.778;2.710;2022-07-29T16:33:39;11.88;;;3.28;;
54307;SDS011;40208;39.778;2.710;2022-07-29T16:36:23;7.38;;;3.67;;
54307;SDS011;40208;39.778;2.710;2022-07-29T16:39:08;10.38;;;3.38;;
54307;SDS011;40208;39.778;2.710;2022-07-29T16:41:55;9.45;;;3.22;;
54307;SDS011;40208;39.778;2.710;2022-07-29T16:44:40;9.52;;;3.50;;
54307;SDS011;40208;39.778;2.710;2022-07-29T16:47:25;10.50;;;3.22;;
54307;SDS011;40208;39.778;2.710;2022-07-29T16:50:10;10.85;;;3.13;;
54307;SDS011;40208;39.778;2.710;2022-07-29T16:52:55;8.15;;;2.92;;
54307;SDS011;40208;39.778;2.710;2022-07-29T16:55:40;8.40;;;2.85;;
54307;SDS011;40208;39.778;2.710;2022-07-29T16:58:25;8.50;;;3.13;;
54307;SDS011;40208;39.778;2.710;2022-07-29T17:01:10;7.55;;;3.20;;
54307;SDS011;40208;39.778;2.710;2022-07-29T17:03:55;9.30;;;2.75;;
54307;SDS011;40208;39.778;2.710;2022-07-29T17:06:49;10.18;;;3.50;;
54307;SDS011;40208;39.778;2.710;2022-07-29T17:09:34;10.02;;;3.17;;
54307;SDS011;40208;39.778;2.710;2022-07-29T17:12:19;24.15;;;5.30;;
54307;SDS011;40208;39.778;2.710;2022-07-29T17:15:04;22.25;;;6.07;;
54307;SDS011;40208;39.778;2.710;2022-07-29T17:17:51;25.95;;;7.13;;
54307;SDS011;40208;39.778;2.710;2022-07-29T17:20:36;27.98;;;10.52;;
54307;SDS011;40208;39.778;2.710;2022-07-29T17:23:21;25.67;;;11.07;;
54307;SDS011;40208;39.778;2.710;2022-07-29T17:26:06;29.85;;;12.07;;
54307;SDS011;40208;39.778;2.710;2022-07-29T17:28:51;30.98;;;11.75;;
54307;SDS011;40208;39.778;2.710;2022-07-29T17:31:36;20.02;;;9.98;;
54307;SDS011;40208;39.778;2.710;2022-07-29T17:34:21;29.05;;;11.48;;
54307;SDS011;40208;39.778;2.710;2022-07-29T17:37:07;22.60;;;10.18;;
54307;SDS011;40208;39.778;2.710;2022-07-29T17:39:53;20.80;;;8.75;;
54307;SDS011;40208;39.778;2.710;2022-07-29T17:42:38;25.92;;;9.95;;